Time;durP1;ratioP1;P1;durP2;ratioP2;P2;SDS_P1;SDS_P2;PMS_P1;PMS_P2;Temp;Humidity;BMP_temperature;BMP_pressure;BME280_temperature;BME280_humidity;BME280_pressure;Samples;Min_cycle;Max_cycle;Signal;HPM_P1;HPM_P2
2024/01/12 00:01:04;;;;;;;23.38;13.73;;;;;;;13.62;46.96;103594.31;4945043;28;20139;-34
2024/01/12 00:03:30;;;;;;;22.15;14.00;;;;;;;13.61;47.05;103593.44;4946860;28;20067;-36
2024/01/12 00:05:57;;;;;;;22.40;13.85;;;;;;;13.62;47.07;103596.97;4949857;28;20102;-34
2024/01/12 00:08:24;;;;;;;21.25;13.40;;;;;;;13.62;47.01;103591.66;4945490;29;20098;-35
2024/01/12 00:10:50;;;;;;;23.73;14.00;;;;;;;13.60;46.82;103589.06;4948918;28;20053;-34
2024/01/12 00:13:17;;;;;;;22.45;13.05;;;;;;;13.61;46.78;103601.44;4947654;28;20135;-34
2024/01/12 00:15:44;;;;;;;23.38;14.20;;;;;;;13.61;46.79;103597.91;4949361;28;20399;-35
2024/01/12 00:18:11;;;;;;;19.55;12.88;;;;;;;13.65;46.79;103594.22;4940479;28;20047;-34
2024/01/12 00:20:42;;;;;;;23.42;13.60;;;;;;;13.70;46.28;103589.56;4951269;28;20080;-34
2024/01/12 00:23:10;;;;;;;21.35;12.77;;;;;;;13.76;46.66;103592.03;4953088;29;20051;-34
2024/01/12 00:25:36;;;;;;;20.58;12.73;;;;;;;13.83;46.79;103589.06;4950178;28;20443;-34
2024/01/12 00:28:04;;;;;;;20.77;13.52;;;;;;;13.93;46.58;103584.22;4947694;29;20055;-37
2024/01/12 00:30:30;;;;;;;20.55;12.50;;;;;;;14.05;46.62;103573.09;4951785;28;20058;-36
2024/01/12 00:32:57;;;;;;;21.48;12.25;;;;;;;14.16;46.23;103583.34;4947382;28;20070;-35
2024/01/12 00:35:24;;;;;;;22.10;12.38;;;;;;;14.28;46.37;103579.31;4950253;29;20125;-34
2024/01/12 00:37:50;;;;;;;21.27;12.90;;;;;;;14.38;46.10;103585.13;4951166;29;20050;-35
2024/01/12 00:40:17;;;;;;;20.50;12.43;;;;;;;14.46;46.02;103591.00;4946527;28;20102;-35
2024/01/12 00:42:44;;;;;;;20.88;13.15;;;;;;;14.53;45.83;103596.06;4947158;29;20445;-35
2024/01/12 00:45:11;;;;;;;21.15;12.60;;;;;;;14.59;45.91;103599.41;4949708;28;20043;-36
2024/01/12 00:47:37;;;;;;;20.33;12.73;;;;;;;14.63;45.34;103598.34;4947956;28;20355;-34
2024/01/12 00:50:04;;;;;;;21.55;13.23;;;;;;;14.61;44.92;103590.41;4948207;28;20063;-35
2024/01/12 00:52:31;;;;;;;17.92;11.90;;;;;;;14.59;45.80;103592.28;4948265;29;20427;-38
2024/01/12 00:54:59;;;;;;;21.75;12.15;;;;;;;14.57;45.19;103592.34;4948624;28;20121;-35
2024/01/12 00:57:26;;;;;;;18.20;10.88;;;;;;;14.57;45.21;103597.69;4943128;29;20056;-36
2024/01/12 00:59:52;;;;;;;20.38;11.60;;;;;;;14.56;45.47;103595.97;4946766;29;20058;-36
2024/01/12 01:02:19;;;;;;;19.05;12.07;;;;;;;14.54;46.02;103599.59;4944979;28;20051;-36
2024/01/12 01:04:46;;;;;;;18.88;12.10;;;;;;;14.53;45.93;103611.22;4948417;28;20130;-36
2024/01/12 01:07:12;;;;;;;18.35;11.52;;;;;;;14.51;45.95;103600.63;4947517;28;20071;-36
2024/01/12 01:09:39;;;;;;;19.92;11.55;;;;;;;14.49;45.32;103598.94;4942419;29;20146;-36
2024/01/12 01:12:06;;;;;;;17.00;10.70;;;;;;;14.48;45.53;103597.19;4944151;29;20139;-37
2024/01/12 01:14:32;;;;;;;18.33;11.23;;;;;;;14.47;46.14;103598.97;4947076;28;20054;-36
2024/01/12 01:16:59;;;;;;;20.02;12.10;;;;;;;14.47;46.12;103598.09;4946034;28;20503;-35
2024/01/12 01:19:26;;;;;;;17.20;11.35;;;;;;;14.45;45.42;103598.16;4944856;28;20047;-36
2024/01/12 01:21:54;;;;;;;18.65;11.25;;;;;;;14.45;46.25;103599.97;4943318;28;20138;-38
2024/01/12 01:24:20;;;;;;;19.52;11.30;;;;;;;14.43;45.45;103593.81;4942593;28;20130;-36
2024/01/12 01:26:47;;;;;;;17.50;11.13;;;;;;;14.43;45.83;103600.03;4941476;28;20411;-35
2024/01/12 01:29:14;;;;;;;17.70;11.02;;;;;;;14.41;46.15;103596.53;4944753;28;20177;-35
2024/01/12 01:31:41;;;;;;;17.77;11.02;;;;;;;14.39;45.70;103598.41;4944192;28;20051;-35
2024/01/12 01:34:07;;;;;;;20.33;11.25;;;;;;;14.48;46.44;103597.19;4947010;28;20153;-34
2024/01/12 01:36:34;;;;;;;17.30;10.95;;;;;;;14.59;45.44;103594.06;4943179;28;20052;-35
2024/01/12 01:39:01;;;;;;;19.42;11.90;;;;;;;14.67;45.80;103602.63;4945908;28;20332;-35
2024/01/12 01:41:27;;;;;;;17.73;11.07;;;;;;;14.75;45.61;103595.16;4947071;28;20055;-34
2024/01/12 01:43:54;;;;;;;19.60;11.02;;;;;;;14.84;45.33;103592.13;4945056;28;20046;-36
2024/01/12 01:46:21;;;;;;;17.08;10.02;;;;;;;14.91;45.84;103584.69;4941874;28;20474;-36
2024/01/12 01:48:48;;;;;;;16.58;10.00;;;;;;;14.97;45.58;103592.47;4939580;28;20057;-36
2024/01/12 01:51:15;;;;;;;17.70;10.60;;;;;;;15.03;45.16;103590.41;4943946;28;20047;-35
2024/01/12 01:53:42;;;;;;;16.35;10.02;;;;;;;15.09;44.65;103583.91;4944444;28;20106;-35
2024/01/12 01:56:11;;;;;;;16.25;10.70;;;;;;;15.14;45.05;103586.38;4942880;28;20405;-36
2024/01/12 01:58:38;;;;;;;16.08;10.27;;;;;;;15.14;44.66;103589.06;4945713;28;20051;-34
2024/01/12 02:01:05;;;;;;;18.15;9.90;;;;;;;15.10;45.21;103585.66;4944003;28;20063;-34
2024/01/12 02:03:32;;;;;;;15.52;9.73;;;;;;;15.04;45.44;103581.44;4940923;28;20071;-35
2024/01/12 02:05:59;;;;;;;18.25;10.48;;;;;;;14.98;44.82;103594.19;4942490;28;20055;-39
2024/01/12 02:08:26;;;;;;;15.48;9.30;;;;;;;14.94;45.56;103598.78;4945754;28;20062;-36
2024/01/12 02:10:55;;;;;;;16.75;10.43;;;;;;;14.91;44.90;103595.38;4948973;28;20070;-35
2024/01/12 02:13:22;;;;;;;14.93;9.50;;;;;;;14.86;45.00;103589.38;4947244;28;20435;-35
2024/01/12 02:15:49;;;;;;;16.20;9.65;;;;;;;14.81;45.50;103587.78;4948501;28;20075;-35
2024/01/12 02:18:15;;;;;;;14.38;9.65;;;;;;;14.79;45.11;103596.78;4946606;28;20181;-35
2024/01/12 02:20:44;;;;;;;13.57;8.98;;;;;;;14.75;45.88;103593.41;4949884;28;20047;-35
2024/01/12 02:23:10;;;;;;;15.65;9.93;;;;;;;14.73;45.71;103591.72;4947370;28;20435;-36
2024/01/12 02:25:38;;;;;;;15.05;8.95;;;;;;;14.72;45.37;103595.31;4949301;28;20432;-35
2024/01/12 02:28:05;;;;;;;13.38;8.57;;;;;;;14.71;45.80;103586.44;4946806;28;20156;-38
2024/01/12 02:30:33;;;;;;;14.48;8.50;;;;;;;14.70;46.05;103595.38;4943570;28;20087;-35
2024/01/12 02:33:04;;;;;;;14.32;9.00;;;;;;;14.71;45.18;103588.22;4951802;28;20055;-35
2024/01/12 02:35:31;;;;;;;12.63;8.38;;;;;;;14.69;45.94;103593.63;4949081;28;20054;-34
2024/01/12 02:37:58;;;;;;;13.80;8.32;;;;;;;14.66;46.06;103595.56;4948949;28;20066;-35
2024/01/12 02:40:25;;;;;;;15.50;8.98;;;;;;;14.65;45.44;103593.84;4943294;28;20387;-35
2024/01/12 02:42:51;;;;;;;13.75;8.07;;;;;;;14.62;45.37;103592.16;4951010;28;20047;-35
2024/01/12 02:45:19;;;;;;;13.90;7.68;;;;;;;14.61;45.38;103592.22;4946650;28;20078;-34
2024/01/12 02:47:45;;;;;;;13.23;7.85;;;;;;;14.57;46.21;103587.00;4945849;28;20135;-36
2024/01/12 02:50:12;;;;;;;13.52;8.23;;;;;;;14.53;45.70;103585.41;4946422;28;20055;-34
2024/01/12 02:52:39;;;;;;;12.65;8.50;;;;;;;14.49;45.49;103578.44;4945101;28;20051;-36
2024/01/12 02:55:06;;;;;;;13.10;8.05;;;;;;;14.46;46.32;103583.88;4945567;28;20447;-35
2024/01/12 02:57:32;;;;;;;14.15;8.32;;;;;;;14.53;46.38;103572.06;4942816;28;20079;-35
2024/01/12 02:59:59;;;;;;;12.25;7.53;;;;;;;14.66;45.64;103571.53;4947246;28;20055;-35
2024/01/12 03:02:29;;;;;;;10.88;8.00;;;;;;;14.77;45.32;103563.94;4946850;28;20141;-35
2024/01/12 03:04:56;;;;;;;13.25;8.10;;;;;;;14.87;45.39;103567.06;4944259;28;20050;-35
2024/01/12 03:07:23;;;;;;;12.93;7.97;;;;;;;14.97;45.71;103565.75;4945862;28;20048;-34
2024/01/12 03:09:49;;;;;;;11.32;7.40;;;;;;;15.08;45.56;103570.66;4943539;28;20075;-34
2024/01/12 03:12:16;;;;;;;13.02;7.65;;;;;;;15.16;44.60;103563.16;4945880;28;20405;-35
2024/01/12 03:14:42;;;;;;;13.13;7.03;;;;;;;15.24;44.65;103555.66;4946852;28;20193;-34
2024/01/12 03:17:10;;;;;;;12.88;8.10;;;;;;;15.31;44.47;103552.63;4946915;28;20054;-34
2024/01/12 03:19:36;;;;;;;13.10;7.82;;;;;;;15.37;45.15;103543.47;4947158;28;20077;-36
2024/01/12 03:22:03;;;;;;;13.32;7.82;;;;;;;15.41;44.79;103538.84;4947136;28;20110;-37
2024/01/12 03:24:31;;;;;;;10.93;7.10;;;;;;;15.45;44.26;103554.69;4943309;29;20141;-38
2024/01/12 03:26:57;;;;;;;9.63;6.40;;;;;;;15.46;45.05;103542.19;4939613;28;20095;-36
2024/01/12 03:29:24;;;;;;;12.18;6.90;;;;;;;15.42;44.76;103540.59;4946980;28;20142;-36
2024/01/12 03:31:51;;;;;;;11.85;7.13;;;;;;;15.39;44.23;103535.38;4943393;28;20111;-36
2024/01/12 03:34:18;;;;;;;11.75;7.25;;;;;;;15.34;45.35;103543.59;4943650;28;20043;-36
2024/01/12 03:36:44;;;;;;;11.07;7.20;;;;;;;15.28;44.89;103541.22;4943242;28;20055;-35
2024/01/12 03:39:11;;;;;;;11.48;6.93;;;;;;;15.22;44.38;103536.16;4942675;28;20415;-36
2024/01/12 03:41:38;;;;;;;11.38;6.90;;;;;;;15.15;45.14;103535.53;4945103;28;20047;-36
2024/01/12 03:44:04;;;;;;;12.25;6.90;;;;;;;15.09;45.43;103533.16;4944610;28;20047;-36
2024/01/12 03:46:31;;;;;;;12.32;7.43;;;;;;;15.05;45.48;103540.44;4943953;28;20055;-35
2024/01/12 03:48:57;;;;;;;11.40;7.07;;;;;;;15.02;45.50;103535.22;4942574;28;20110;-35
2024/01/12 03:51:24;;;;;;;10.50;6.80;;;;;;;15.03;45.03;103530.75;4943895;28;20081;-36
2024/01/12 03:53:51;;;;;;;10.55;6.65;;;;;;;15.01;45.72;103538.84;4943637;28;20050;-34
2024/01/12 03:56:17;;;;;;;10.13;6.40;;;;;;;15.00;45.69;103531.78;4946967;28;20137;-34
2024/01/12 03:58:44;;;;;;;9.52;6.00;;;;;;;14.97;44.82;103531.03;4949842;28;20062;-35
2024/01/12 04:01:11;;;;;;;12.80;6.30;;;;;;;14.95;45.64;103541.78;4944554;28;20138;-36
2024/01/12 04:03:37;;;;;;;9.80;5.85;;;;;;;14.93;44.87;103538.31;4942158;28;20135;-35
2024/01/12 04:06:10;;;;;;;9.10;6.03;;;;;;;14.88;45.40;103537.66;4945718;28;20062;-35
2024/01/12 04:08:37;;;;;;;10.35;6.63;;;;;;;14.87;45.30;103546.56;4949918;28;20410;-36
2024/01/12 04:11:05;;;;;;;9.48;5.75;;;;;;;14.83;45.05;103544.97;4948140;28;20083;-34
2024/01/12 04:13:32;;;;;;;8.10;5.40;;;;;;;14.79;45.20;103551.38;4943345;28;20122;-35
2024/01/12 04:15:59;;;;;;;9.43;5.53;;;;;;;14.76;45.24;103551.53;4946230;28;20058;-36
2024/01/12 04:18:26;;;;;;;9.32;6.07;;;;;;;14.72;45.57;103549.94;4943596;28;20344;-35
2024/01/12 04:20:52;;;;;;;9.07;5.53;;;;;;;14.63;46.19;103548.50;4944614;29;20047;-34
2024/01/12 04:23:19;;;;;;;10.65;5.80;;;;;;;14.58;46.39;103542.50;4943256;28;20051;-34
2024/01/12 04:25:46;;;;;;;9.40;5.55;;;;;;;14.64;45.94;103536.91;4942502;28;20054;-36
2024/01/12 04:28:12;;;;;;;10.50;5.82;;;;;;;14.76;45.64;103538.19;4943343;28;20051;-37
2024/01/12 04:30:39;;;;;;;8.50;5.13;;;;;;;14.87;45.83;103527.03;4948807;28;20561;-35
2024/01/12 04:33:05;;;;;;;9.45;5.57;;;;;;;14.95;45.69;103524.88;4942480;28;20147;-35
2024/01/12 04:35:32;;;;;;;9.73;5.57;;;;;;;15.03;45.49;103526.31;4944018;28;20050;-37
2024/01/12 04:37:59;;;;;;;9.02;5.22;;;;;;;15.11;45.54;103512.56;4942630;28;20654;-35
2024/01/12 04:40:26;;;;;;;8.65;5.25;;;;;;;15.18;45.75;103505.16;4945520;28;20129;-36
2024/01/12 04:42:52;;;;;;;8.40;5.57;;;;;;;15.25;45.00;103510.16;4946050;28;20075;-35
2024/01/12 04:45:19;;;;;;;9.20;4.80;;;;;;;15.33;44.64;103506.28;4944858;28;20051;-36
2024/01/12 04:47:45;;;;;;;7.65;4.82;;;;;;;15.37;44.91;103505.19;4945204;28;20050;-35
2024/01/12 04:50:12;;;;;;;9.23;5.30;;;;;;;15.39;44.98;103505.97;4941360;28;20090;-36
2024/01/12 04:52:39;;;;;;;7.40;5.05;;;;;;;15.37;44.85;103507.88;4944564;28;20054;-37
2024/01/12 04:55:06;;;;;;;7.68;4.68;;;;;;;15.32;45.54;103500.06;4946245;28;20051;-36
2024/01/12 04:57:32;;;;;;;7.88;4.57;;;;;;;15.28;45.38;103502.00;4941392;28;20375;-37
2024/01/12 04:59:59;;;;;;;7.65;4.88;;;;;;;15.24;45.72;103496.88;4945810;28;20451;-35
2024/01/12 05:02:26;;;;;;;6.85;4.32;;;;;;;15.17;45.74;103496.28;4941996;28;20047;-37
2024/01/12 05:04:53;;;;;;;6.82;4.38;;;;;;;15.11;45.06;103493.00;4941786;28;20113;-35
2024/01/12 05:07:19;;;;;;;7.22;4.63;;;;;;;15.05;44.84;103494.19;4943383;29;20400;-39
2024/01/12 05:09:46;;;;;;;8.07;4.75;;;;;;;15.01;45.36;103501.44;4939809;28;20098;-37
2024/01/12 05:12:13;;;;;;;7.68;4.43;;;;;;;14.98;45.22;103506.06;4943878;28;20065;-36
2024/01/12 05:14:40;;;;;;;6.90;4.43;;;;;;;14.97;45.83;103509.69;4944798;28;20039;-36
2024/01/12 05:17:09;;;;;;;7.03;4.45;;;;;;;14.98;46.00;103516.75;4940120;28;20360;-36
2024/01/12 05:19:35;;;;;;;8.27;5.03;;;;;;;14.97;44.93;103515.88;4943372;28;20138;-35
2024/01/12 05:22:02;;;;;;;6.72;4.47;;;;;;;14.96;44.95;103524.84;4942846;28;20554;-37
2024/01/12 05:24:29;;;;;;;7.80;4.22;;;;;;;14.94;45.25;103526.69;4944118;28;20059;-36
2024/01/12 05:26:55;;;;;;;6.78;4.38;;;;;;;14.90;45.64;103530.44;4945617;28;20107;-35
2024/01/12 05:29:22;;;;;;;6.45;4.47;;;;;;;14.89;45.51;103534.03;4942832;28;20482;-37
2024/01/12 05:31:49;;;;;;;6.78;4.15;;;;;;;14.87;46.03;103535.03;4943817;28;20050;-35
2024/01/12 05:34:15;;;;;;;5.85;3.97;;;;;;;14.84;46.05;103529.84;4943458;28;20097;-36
2024/01/12 05:36:42;;;;;;;7.90;4.97;;;;;;;14.80;45.59;103527.31;4942302;28;20055;-36
2024/01/12 05:39:10;;;;;;;5.97;3.67;;;;;;;14.79;45.37;103525.59;4945504;28;20368;-35
2024/01/12 05:41:36;;;;;;;8.07;4.35;;;;;;;14.75;45.41;103521.31;4945082;28;20502;-36
2024/01/12 05:44:03;;;;;;;6.28;3.92;;;;;;;14.70;45.80;103520.63;4945231;28;20056;-35
2024/01/12 05:46:30;;;;;;;6.90;4.57;;;;;;;14.62;46.44;103521.88;4948087;28;20089;-36
2024/01/12 05:48:57;;;;;;;6.22;3.83;;;;;;;14.61;46.04;103525.50;4946231;28;20063;-36
2024/01/12 05:51:24;;;;;;;5.32;3.80;;;;;;;14.67;45.94;103523.41;4947034;28;20444;-35
2024/01/12 05:53:51;;;;;;;5.30;3.60;;;;;;;14.77;46.40;103530.09;4945412;28;20535;-35
2024/01/12 05:56:18;;;;;;;6.00;3.88;;;;;;;14.88;45.93;103526.13;4949426;29;20321;-34
2024/01/12 05:58:44;;;;;;;7.65;3.88;;;;;;;14.96;45.87;103523.97;4947275;28;20055;-36
2024/01/12 06:01:11;;;;;;;5.68;3.63;;;;;;;15.04;45.36;103532.50;4946864;28;20134;-35
2024/01/12 06:03:39;;;;;;;5.45;3.65;;;;;;;15.13;45.80;103531.22;4947999;28;20086;-34
2024/01/12 06:06:05;;;;;;;7.82;4.00;;;;;;;15.19;45.36;103539.81;4950831;28;20117;-36
2024/01/12 06:08:32;;;;;;;5.95;3.60;;;;;;;15.28;44.89;103527.88;4944913;28;20051;-34
2024/01/12 06:11:00;;;;;;;7.20;3.90;;;;;;;15.35;45.36;103528.44;4948845;28;20138;-34
2024/01/12 06:13:26;;;;;;;4.93;3.28;;;;;;;15.40;44.43;103527.31;4944563;28;20123;-35
2024/01/12 06:15:53;;;;;;;4.40;3.30;;;;;;;15.46;44.58;103532.34;4947182;28;20049;-35
2024/01/12 06:18:22;;;;;;;5.03;3.33;;;;;;;15.50;44.48;103531.28;4945684;28;20059;-35
2024/01/12 06:20:49;;;;;;;5.88;3.35;;;;;;;15.51;45.06;103532.13;4949753;28;20055;-36
2024/01/12 06:23:16;;;;;;;5.10;3.20;;;;;;;15.49;44.44;103529.53;4947196;28;20376;-37
2024/01/12 06:25:43;;;;;;;7.25;3.20;;;;;;;15.46;45.30;103534.16;4945442;28;20051;-35
2024/01/12 06:28:10;;;;;;;6.43;2.97;;;;;;;15.42;44.37;103533.44;4944182;28;20126;-34
2024/01/12 06:30:37;;;;;;;6.03;4.00;;;;;;;15.36;44.54;103539.06;4945271;28;20043;-36
2024/01/12 06:33:04;;;;;;;4.82;3.20;;;;;;;15.30;44.71;103534.84;4945624;28;20062;-34
2024/01/12 06:35:31;;;;;;;5.30;3.53;;;;;;;15.24;45.32;103540.50;4947924;28;20050;-35
2024/01/12 06:37:58;;;;;;;4.40;2.97;;;;;;;15.20;45.05;103544.25;4947997;28;20082;-36
2024/01/12 06:40:24;;;;;;;6.10;3.42;;;;;;;15.14;44.80;103533.81;4944994;28;20058;-34
2024/01/12 06:42:52;;;;;;;5.35;3.25;;;;;;;15.13;45.09;103532.09;4945274;28;20137;-37
2024/01/12 06:45:19;;;;;;;5.43;3.55;;;;;;;15.15;45.00;103538.22;4946705;28;20091;-36
2024/01/12 06:47:45;;;;;;;4.60;3.35;;;;;;;15.13;45.82;103529.41;4945867;28;20166;-36
2024/01/12 06:50:13;;;;;;;4.40;2.83;;;;;;;15.12;45.90;103537.50;4947405;28;20059;-35
2024/01/12 06:52:40;;;;;;;4.13;2.60;;;;;;;15.09;45.53;103530.50;4949007;28;20325;-36
2024/01/12 06:55:07;;;;;;;4.30;3.00;;;;;;;15.06;45.02;103519.94;4948283;28;20051;-35
2024/01/12 06:57:33;;;;;;;4.20;2.72;;;;;;;15.04;45.59;103527.16;4946248;28;20052;-34
2024/01/12 07:00:00;;;;;;;4.18;2.95;;;;;;;15.01;45.68;103524.63;4947564;28;20130;-35
2024/01/12 07:02:27;;;;;;;4.35;2.60;;;;;;;14.99;45.21;103523.81;4948628;28;20146;-34
2024/01/12 07:04:53;;;;;;;4.47;3.17;;;;;;;14.96;45.26;103523.97;4948429;28;20428;-36
2024/01/12 07:07:20;;;;;;;3.97;2.63;;;;;;;14.91;45.55;103521.47;4944476;28;20142;-35
2024/01/12 07:09:46;;;;;;;4.65;3.00;;;;;;;14.87;46.13;103514.53;4948964;28;20141;-35
2024/01/12 07:12:13;;;;;;;3.83;2.80;;;;;;;14.85;46.21;103523.56;4946671;28;20055;-34
2024/01/12 07:14:40;;;;;;;3.78;2.75;;;;;;;14.80;46.13;103516.63;4943823;29;20076;-35
2024/01/12 07:17:07;;;;;;;4.35;3.03;;;;;;;14.76;45.58;103523.03;4946430;28;20055;-36
2024/01/12 07:19:33;;;;;;;5.75;2.95;;;;;;;14.74;45.75;103518.69;4949021;28;20051;-36
2024/01/12 07:22:00;;;;;;;5.28;3.13;;;;;;;14.68;45.77;103518.97;4942526;28;20079;-35
2024/01/12 07:24:26;;;;;;;4.38;2.90;;;;;;;14.62;46.56;103520.09;4940894;28;20062;-37
2024/01/12 07:26:53;;;;;;;4.53;3.08;;;;;;;14.58;46.10;103518.47;4942735;28;20641;-34
2024/01/12 07:29:22;;;;;;;5.32;3.65;;;;;;;14.55;46.30;103515.94;4942873;28;20058;-35
2024/01/12 07:31:50;;;;;;;5.32;3.28;;;;;;;14.51;46.50;103519.66;4944980;28;20043;-35
2024/01/12 07:34:17;;;;;;;5.75;3.60;;;;;;;14.46;46.28;103519.84;4946645;28;20157;-35
2024/01/12 07:36:44;;;;;;;6.35;4.10;;;;;;;14.43;46.64;103521.75;4944132;28;20102;-35
2024/01/12 07:39:12;;;;;;;5.45;3.50;;;;;;;14.37;46.91;103522.03;4944366;28;20154;-35
2024/01/12 07:41:38;;;;;;;7.40;4.18;;;;;;;14.32;47.02;103523.09;4943610;28;20157;-38
2024/01/12 07:44:07;;;;;;;7.03;4.15;;;;;;;14.30;47.08;103521.41;4944107;28;20086;-35
2024/01/12 07:46:35;;;;;;;6.20;4.03;;;;;;;14.27;47.30;103514.41;4944331;28;20044;-37
2024/01/12 07:49:02;;;;;;;7.38;4.45;;;;;;;14.23;46.82;103512.81;4943526;28;20059;-37
2024/01/12 07:51:29;;;;;;;7.20;4.57;;;;;;;14.20;47.22;103512.94;4939108;28;20471;-36
2024/01/12 07:53:55;;;;;;;7.57;4.32;;;;;;;14.16;47.42;103522.00;4947143;28;20431;-36
2024/01/12 07:56:22;;;;;;;6.30;4.55;;;;;;;14.14;47.62;103525.63;4945128;28;20126;-38
2024/01/12 07:58:49;;;;;;;8.50;5.32;;;;;;;14.10;47.38;103527.56;4941716;28;20490;-38
2024/01/12 08:01:16;;;;;;;7.07;4.30;;;;;;;14.08;47.69;103516.09;4947352;28;20410;-36
2024/01/12 08:03:44;;;;;;;8.25;5.22;;;;;;;14.05;47.43;103522.41;4944196;28;20159;-35
2024/01/12 08:06:11;;;;;;;6.72;4.50;;;;;;;14.02;47.44;103525.19;4948546;28;20047;-36
2024/01/12 08:08:38;;;;;;;7.05;4.43;;;;;;;14.00;47.60;103529.75;4946605;28;20102;-35
2024/01/12 08:11:04;;;;;;;7.30;4.78;;;;;;;13.99;47.45;103535.13;4940739;28;20173;-35
2024/01/12 08:13:32;;;;;;;7.05;4.68;;;;;;;13.97;47.62;103540.53;4945860;28;20051;-35
2024/01/12 08:15:58;;;;;;;7.57;4.80;;;;;;;13.95;47.75;103546.81;4945143;28;20161;-34
2024/01/12 08:18:26;;;;;;;7.78;4.90;;;;;;;13.94;47.66;103537.09;4946560;28;20051;-35
2024/01/12 08:20:53;;;;;;;8.93;5.50;;;;;;;13.93;47.77;103546.03;4946718;29;20062;-35
2024/01/12 08:23:19;;;;;;;9.18;5.75;;;;;;;13.92;47.67;103545.16;4948714;28;20163;-35
2024/01/12 08:25:46;;;;;;;9.27;5.07;;;;;;;13.91;47.82;103542.53;4943437;29;20048;-34
2024/01/12 08:28:13;;;;;;;8.95;5.65;;;;;;;13.92;47.53;103541.66;4944823;29;20820;-35
2024/01/12 08:30:40;;;;;;;9.52;5.95;;;;;;;13.90;47.85;103551.47;4946437;29;20062;-34
2024/01/12 08:33:06;;;;;;;12.65;6.13;;;;;;;13.89;47.56;103553.28;4944295;29;20051;-36
2024/01/12 08:35:34;;;;;;;9.43;6.18;;;;;;;13.89;47.57;103558.63;4942731;28;20055;-37
2024/01/12 08:38:00;;;;;;;9.98;6.43;;;;;;;13.90;47.95;103548.81;4945230;29;20339;-36
2024/01/12 08:40:27;;;;;;;11.05;6.18;;;;;;;13.90;47.80;103549.69;4944806;29;20416;-35
2024/01/12 08:42:56;;;;;;;12.93;7.18;;;;;;;13.90;47.80;103540.81;4941173;29;20098;-35
2024/01/12 08:45:22;;;;;;;11.27;6.28;;;;;;;13.90;47.78;103548.81;4943313;29;20062;-36
2024/01/12 08:47:49;;;;;;;11.15;6.60;;;;;;;13.91;47.73;103547.88;4948634;29;20071;-36
2024/01/12 08:50:16;;;;;;;12.38;6.35;;;;;;;13.90;47.83;103544.34;4945465;29;20106;-36
2024/01/12 08:52:43;;;;;;;13.93;7.35;;;;;;;13.91;48.14;103542.53;4945321;28;20056;-35
2024/01/12 08:55:11;;;;;;;12.77;7.25;;;;;;;13.92;47.97;103538.97;4945149;29;20047;-35
2024/01/12 08:57:37;;;;;;;10.70;6.80;;;;;;;13.91;48.04;103542.53;4943604;28;20378;-34
2024/01/12 09:00:05;;;;;;;12.30;7.20;;;;;;;13.91;48.21;103540.78;4947325;28;20443;-34
2024/01/12 09:02:32;;;;;;;13.80;7.45;;;;;;;13.94;47.68;103548.63;4944392;29;20138;-35
2024/01/12 09:04:59;;;;;;;11.95;7.07;;;;;;;13.93;47.83;103551.38;4945127;28;20070;-34
2024/01/12 09:07:26;;;;;;;11.43;6.95;;;;;;;13.95;47.68;103550.41;4946660;29;20075;-36
2024/01/12 09:09:52;;;;;;;12.05;7.78;;;;;;;13.96;47.96;103546.78;4946349;29;20098;-35
2024/01/12 09:12:19;;;;;;;11.82;7.05;;;;;;;13.97;47.71;103547.66;4945849;29;20051;-39
2024/01/12 09:14:46;;;;;;;14.27;7.97;;;;;;;13.97;47.48;103532.53;4943887;29;20049;-35
2024/01/12 09:17:12;;;;;;;12.32;7.93;;;;;;;13.98;47.89;103536.06;4946006;29;20133;-35
2024/01/12 09:19:39;;;;;;;13.13;8.40;;;;;;;13.98;47.58;103522.72;4942675;29;20431;-36
2024/01/12 09:22:06;;;;;;;14.27;8.27;;;;;;;14.00;47.54;103524.41;4947184;28;20047;-36
2024/01/12 09:24:32;;;;;;;12.52;8.27;;;;;;;14.00;47.77;103521.75;4947497;28;20122;-36
2024/01/12 09:26:59;;;;;;;14.50;8.52;;;;;;;14.01;47.61;103523.47;4941493;29;20348;-35
2024/01/12 09:29:26;;;;;;;18.05;9.80;;;;;;;14.02;47.48;103519.88;4942223;29;20114;-36
2024/01/12 09:31:52;;;;;;;16.35;9.85;;;;;;;14.03;47.48;103526.06;4945436;28;20142;-35
2024/01/12 09:34:19;;;;;;;18.88;10.27;;;;;;;14.02;47.85;103522.53;4943605;29;20135;-35
2024/01/12 09:36:46;;;;;;;15.60;10.35;;;;;;;14.03;47.38;103529.63;4949501;28;20043;-36
2024/01/12 09:39:14;;;;;;;16.85;10.10;;;;;;;14.04;47.37;103530.47;4950092;29;20083;-35
2024/01/12 09:41:46;;;;;;;17.25;11.40;;;;;;;14.05;47.53;103532.22;4943876;28;20056;-35
2024/01/12 09:44:20;;;;;;;18.33;11.13;;;;;;;14.05;47.46;103534.88;4947099;29;20385;-35
2024/01/12 09:46:55;;;;;;;20.08;11.60;;;;;;;14.06;47.66;103533.94;4947350;29;20122;-35
2024/01/12 09:49:23;;;;;;;17.60;11.02;;;;;;;14.06;47.13;103537.47;4948243;29;20055;-35
2024/01/12 09:51:50;;;;;;;20.35;12.10;;;;;;;14.06;47.61;103537.47;4947547;29;20055;-33
2024/01/12 09:54:17;;;;;;;20.30;12.10;;;;;;;14.06;47.47;103545.47;4941015;29;20051;-35
2024/01/12 09:56:46;;;;;;;21.00;12.43;;;;;;;14.07;47.13;103543.72;4942589;29;20114;-34
2024/01/12 09:59:16;;;;;;;20.13;12.73;;;;;;;14.06;47.22;103542.81;4940001;28;20396;-35
2024/01/12 10:01:43;;;;;;;20.63;12.82;;;;;;;14.06;47.94;103541.94;4944431;29;20110;-34
2024/01/12 10:04:09;;;;;;;23.02;13.05;;;;;;;14.07;47.45;103544.56;4942591;29;20055;-34
2024/01/12 10:06:36;;;;;;;22.35;13.18;;;;;;;14.07;47.54;103541.91;4941067;28;20457;-35
2024/01/12 10:09:04;;;;;;;20.58;12.80;;;;;;;14.09;47.95;103536.50;4939506;28;20065;-34
2024/01/12 10:11:31;;;;;;;21.05;13.13;;;;;;;14.09;47.21;103536.50;4944397;28;20047;-37
2024/01/12 10:13:57;;;;;;;23.35;13.93;;;;;;;14.10;47.42;103540.03;4939278;29;20052;-35
2024/01/12 10:16:28;;;;;;;20.77;13.40;;;;;;;14.10;47.21;103542.69;4938900;29;20048;-37
2024/01/12 10:18:57;;;;;;;23.08;12.98;;;;;;;14.11;47.02;103542.66;4943587;28;20201;-35
2024/01/12 10:21:25;;;;;;;21.73;12.73;;;;;;;14.11;47.62;103542.66;4943484;28;20044;-35
2024/01/12 10:24:02;;;;;;;21.02;12.75;;;;;;;14.10;47.57;103532.03;4943443;29;20174;-34
2024/01/12 10:26:29;;;;;;;21.42;13.40;;;;;;;14.12;47.09;103528.38;4947550;29;20388;-35
2024/01/12 10:29:01;;;;;;;23.20;13.30;;;;;;;14.10;47.45;103532.88;4945134;28;20055;-35
2024/01/12 10:31:28;;;;;;;20.05;12.50;;;;;;;14.11;47.46;103523.09;4944504;29;20384;-35
2024/01/12 10:34:00;;;;;;;22.20;13.27;;;;;;;14.11;47.28;103521.31;4950778;28;20077;-34
2024/01/12 10:36:30;;;;;;;23.00;13.50;;;;;;;14.12;47.19;103525.72;4950099;29;20090;-36
2024/01/12 10:39:00;;;;;;;22.38;13.73;;;;;;;14.14;47.26;103528.31;4948428;28;20067;-37
2024/01/12 10:41:28;;;;;;;25.92;15.60;;;;;;;14.19;47.19;103515.63;4938087;29;20054;-35
2024/01/12 10:43:58;;;;;;;27.27;14.80;;;;;;;14.30;47.38;103505.41;4943279;29;20059;-39
2024/01/12 10:46:59;;;;;;;25.25;15.55;;;;;;;14.48;47.56;103501.97;4941354;28;20360;-36
2024/01/12 10:49:26;;;;;;;28.08;16.50;;;;;;;14.65;47.63;103505.75;4932158;28;21322;-37
2024/01/12 10:52:21;;;;;;;28.67;16.98;;;;;;;14.84;47.26;103498.69;4945043;29;20047;-35
2024/01/12 10:54:56;;;;;;;32.10;17.92;;;;;;;15.02;47.26;103496.97;4942332;29;20158;-35
2024/01/12 10:57:24;;;;;;;32.78;18.83;;;;;;;15.19;46.64;103482.84;4942602;28;20125;-35
2024/01/12 10:59:51;;;;;;;31.58;19.20;;;;;;;15.34;47.14;103498.19;4941955;28;20062;-34
2024/01/12 11:02:19;;;;;;;33.08;20.27;;;;;;;15.48;46.66;103490.41;4942157;29;20051;-34
2024/01/12 11:04:46;;;;;;;32.58;20.25;;;;;;;15.63;46.28;103490.59;4944445;28;20059;-35
2024/01/12 11:07:14;;;;;;;33.08;19.83;;;;;;;15.77;46.79;103502.41;4940558;29;20083;-34
2024/01/12 11:09:41;;;;;;;31.05;19.27;;;;;;;15.90;46.67;103501.81;4942800;29;20058;-35
2024/01/12 11:12:10;;;;;;;35.40;20.85;;;;;;;16.04;46.24;103504.69;4943498;29;20143;-35
2024/01/12 11:14:39;;;;;;;35.10;20.65;;;;;;;16.14;45.98;103511.31;4941543;29;20048;-41
2024/01/12 11:17:06;;;;;;;36.92;21.27;;;;;;;16.25;46.17;103508.09;4943583;29;20047;-34